PWSweather.com
Personal Weather Stations
Station Observations
MAKAWAOWX1
Up Country Maui, Makawao, HI 96768

Up Country MauiMakawao, HI 96768

Lat: 20.856944, Lon: -156.3149667

Elevation: 1500

Station Type: Davis Vantage Pro

www.dwayneyamato@hawaiiantel.net

High Low Average
Temperature 73.5°F23.1°F 59.5°F15.3°F 64.1°F17.8°F
Dew Point 64.7°F18.2°F 56.3°F13.5°F 60.7°F15.9°F
Winds 4.6 mph ENE7.4 mph ENE Calm Calm 0.4 mph 0.6 mph
Wind Gusts 12.7 mph20.4 mph -- 1.3 mph2.1 mph
Humidity 94% 72% 89%
Pressure 30.03 in1016.90 in 29.90 in1012.50 in -
Precipitation 1.25 in31.80 in - -
Hour Temp Dew Point Humidity Winds Wind Gusts Pressure Precip Precip Rate Daily Precip Total
12:00 AM 59.5°F15.3°C 56.3°F13.5°C 89% Calm Calm -- 29.93 in1013.5 mb - 0.00 in0.0 mm 0.00 in0.0 mm
12:10 AM 59.8°F15.4°C 56.6°F13.7°C 89% Calm Calm -- 29.94 in1013.9 mb - 0.00 in0.0 mm 0.00 in0.0 mm
12:20 AM 60.2°F15.7°C 56.9°F13.8°C 89% Calm Calm -- 29.93 in1013.5 mb - 0.00 in0.0 mm 0.00 in0.0 mm
12:30 AM 60.7°F15.9°C 58.1°F14.5°C 91% Calm Calm -- 29.93 in1013.5 mb - 0.00 in0.0 mm 0.00 in0.0 mm
12:40 AM 61.3°F16.3°C 58.7°F14.8°C 91% Calm Calm -- 29.93 in1013.5 mb - 0.00 in0.0 mm 0.00 in0.0 mm
12:50 AM 61.4°F16.3°C 58.4°F14.7°C 90% Calm Calm -- 29.92 in1013.2 mb - 0.00 in0.0 mm 0.00 in0.0 mm
01:00 AM 61.3°F16.3°C 57.7°F14.3°C 88% Calm Calm -- 29.92 in1013.2 mb - 0.00 in0.0 mm 0.00 in0.0 mm
01:10 AM 61.2°F16.2°C 57.6°F14.2°C 88% Calm Calm -- 29.92 in1013.2 mb - 0.00 in0.0 mm 0.00 in0.0 mm
01:20 AM 61.2°F16.2°C 57.9°F14.4°C 89% Calm Calm -- 29.92 in1013.2 mb - 0.00 in0.0 mm 0.00 in0.0 mm
01:30 AM 61.2°F16.2°C 57.9°F14.4°C 89% Calm Calm -- 29.92 in1013.2 mb - 0.00 in0.0 mm 0.00 in0.0 mm
01:40 AM 61.4°F16.3°C 58.1°F14.5°C 89% Calm Calm -- 29.92 in1013.2 mb - 0.00 in0.0 mm 0.00 in0.0 mm
01:50 AM 61.3°F16.3°C 57.7°F14.3°C 88% Calm Calm -- 29.92 in1013.2 mb - 0.00 in0.0 mm 0.00 in0.0 mm
02:00 AM 61.2°F16.2°C 57.6°F14.2°C 88% Calm Calm -- 29.92 in1013.2 mb - 0.00 in0.0 mm 0.00 in0.0 mm
02:10 AM 61.3°F16.3°C 58.0°F14.4°C 89% Calm Calm -- 29.92 in1013.2 mb - 0.00 in0.0 mm 0.00 in0.0 mm
02:20 AM 61.6°F16.4°C 58.6°F14.8°C 90% Calm Calm -- 29.91 in1012.9 mb - 0.00 in0.0 mm 0.00 in0.0 mm
02:30 AM 61.6°F16.4°C 58.6°F14.8°C 90% Calm Calm -- 29.91 in1012.9 mb - 0.00 in0.0 mm 0.00 in0.0 mm
02:40 AM 61.4°F16.3°C 57.8°F14.3°C 88% Calm Calm -- 29.90 in1012.5 mb - 0.00 in0.0 mm 0.00 in0.0 mm
02:50 AM 61.4°F16.3°C 58.1°F14.5°C 89% Calm Calm -- 29.90 in1012.5 mb - 0.00 in0.0 mm 0.00 in0.0 mm
03:00 AM 61.2°F16.2°C 57.3°F14.1°C 87% Calm Calm -- 29.90 in1012.5 mb - 0.00 in0.0 mm 0.00 in0.0 mm
03:10 AM 61.1°F16.2°C 57.2°F14.0°C 87% Calm Calm -- 29.90 in1012.5 mb - 0.00 in0.0 mm 0.00 in0.0 mm
03:20 AM 61.0°F16.1°C 57.1°F13.9°C 87% Calm Calm -- 29.90 in1012.5 mb - 0.00 in0.0 mm 0.00 in0.0 mm
03:30 AM 60.9°F16.1°C 57.3°F14.1°C 88% Calm Calm -- 29.90 in1012.5 mb - 0.00 in0.0 mm 0.00 in0.0 mm
03:40 AM 60.7°F15.9°C 57.1°F13.9°C 88% Calm Calm -- 29.90 in1012.5 mb - 0.00 in0.0 mm 0.00 in0.0 mm
03:50 AM 60.7°F15.9°C 57.8°F14.3°C 90% Calm Calm -- 29.90 in1012.5 mb - 0.00 in0.0 mm 0.00 in0.0 mm
04:00 AM 61.3°F16.3°C 58.7°F14.8°C 91% Calm Calm -- 29.90 in1012.5 mb - 0.00 in0.0 mm 0.00 in0.0 mm
04:10 AM 61.3°F16.3°C 58.7°F14.8°C 91% Calm Calm -- 29.90 in1012.5 mb - 0.00 in0.0 mm 0.00 in0.0 mm
04:20 AM 61.2°F16.2°C 58.6°F14.8°C 91% Calm Calm -- 29.91 in1012.9 mb - 0.00 in0.0 mm 0.00 in0.0 mm
04:30 AM 61.2°F16.2°C 58.6°F14.8°C 91% Calm Calm -- 29.91 in1012.9 mb - 0.00 in0.0 mm 0.00 in0.0 mm
04:40 AM 61.5°F16.4°C 59.1°F15.1°C 92% Calm Calm -- 29.91 in1012.9 mb - 0.00 in0.0 mm 0.00 in0.0 mm
04:50 AM 61.6°F16.4°C 58.9°F14.9°C 91% Calm Calm -- 29.91 in1012.9 mb - 0.00 in0.0 mm 0.00 in0.0 mm
05:00 AM 61.7°F16.5°C 59.0°F15.0°C 91% Calm Calm -- 29.91 in1012.9 mb - 0.00 in0.0 mm 0.00 in0.0 mm
05:10 AM 61.6°F16.4°C 58.9°F14.9°C 91% Calm Calm -- 29.91 in1012.9 mb - 0.00 in0.0 mm 0.00 in0.0 mm
05:20 AM 61.5°F16.4°C 58.5°F14.7°C 90% Calm Calm -- 29.91 in1012.9 mb - 0.00 in0.0 mm 0.00 in0.0 mm
05:30 AM 61.4°F16.3°C 58.1°F14.5°C 89% Calm Calm -- 29.91 in1012.9 mb - 0.00 in0.0 mm 0.00 in0.0 mm
05:40 AM 61.1°F16.2°C 57.5°F14.2°C 88% Calm Calm -- 29.91 in1012.9 mb - 0.00 in0.0 mm 0.00 in0.0 mm
05:50 AM 60.8°F16.0°C 57.2°F14.0°C 88% Calm Calm -- 29.92 in1013.2 mb - 0.00 in0.0 mm 0.00 in0.0 mm
06:00 AM 60.5°F15.8°C 56.9°F13.8°C 88% Calm Calm -- 29.92 in1013.2 mb - 0.00 in0.0 mm 0.00 in0.0 mm
06:10 AM 60.6°F15.9°C 57.3°F14.1°C 89% Calm Calm -- 29.93 in1013.5 mb - 0.00 in0.0 mm 0.00 in0.0 mm
06:20 AM 61.1°F16.2°C 58.1°F14.5°C 90% Calm Calm -- 29.93 in1013.5 mb - 0.00 in0.0 mm 0.00 in0.0 mm
06:30 AM 61.3°F16.3°C 58.7°F14.8°C 91% Calm Calm -- 29.93 in1013.5 mb - 0.00 in0.0 mm 0.00 in0.0 mm
06:40 AM 61.3°F16.3°C 58.7°F14.8°C 91% Calm Calm -- 29.94 in1013.9 mb - 0.00 in0.0 mm 0.00 in0.0 mm
06:50 AM 61.3°F16.3°C 58.3°F14.6°C 90% Calm Calm -- 29.94 in1013.9 mb - 0.00 in0.0 mm 0.00 in0.0 mm
07:00 AM 61.3°F16.3°C 58.3°F14.6°C 90% Calm Calm -- 29.94 in1013.9 mb - 0.00 in0.0 mm 0.00 in0.0 mm
07:10 AM 61.5°F16.4°C 58.5°F14.7°C 90% Calm Calm -- 29.95 in1014.2 mb - 0.01 in0.3 mm 0.01 in0.3 mm
07:20 AM 61.6°F16.4°C 58.6°F14.8°C 90% Calm Calm -- 29.95 in1014.2 mb - 0.00 in0.0 mm 0.01 in0.3 mm
07:30 AM 61.8°F16.6°C 58.9°F14.9°C 90% Calm Calm -- 29.96 in1014.6 mb - 0.00 in0.0 mm 0.01 in0.3 mm
07:40 AM 62.2°F16.8°C 59.5°F15.3°C 91% Calm Calm -- 29.96 in1014.6 mb - 0.05 in1.3 mm 0.06 in1.5 mm
07:50 AM 62.3°F16.8°C 59.9°F15.5°C 92% Calm Calm -- 29.96 in1014.6 mb - 0.01 in0.3 mm 0.07 in1.8 mm
08:00 AM 62.4°F16.9°C 60.0°F15.6°C 92% Calm Calm -- 29.96 in1014.6 mb - 0.00 in0.0 mm 0.07 in1.8 mm
08:10 AM 62.7°F17.1°C 60.3°F15.7°C 92% Calm Calm -- 29.96 in1014.6 mb - 0.00 in0.0 mm 0.07 in1.8 mm
08:20 AM 62.8°F17.1°C 60.1°F15.6°C 91% Calm Calm -- 29.97 in1014.9 mb - 0.00 in0.0 mm 0.07 in1.8 mm
08:30 AM 62.9°F17.2°C 60.5°F15.8°C 92% Calm Calm -- 29.97 in1014.9 mb - 0.00 in0.0 mm 0.07 in1.8 mm
08:40 AM 63.5°F17.5°C 61.1°F16.2°C 92% Calm Calm -- 29.97 in1014.9 mb - 0.00 in0.0 mm 0.07 in1.8 mm
08:50 AM 63.9°F17.7°C 60.9°F16.1°C 90% Calm Calm -- 29.98 in1015.2 mb - 0.00 in0.0 mm 0.07 in1.8 mm
09:00 AM 64.0°F17.8°C 61.0°F16.1°C 90% Calm Calm -- 29.98 in1015.2 mb - 0.00 in0.0 mm 0.07 in1.8 mm
09:10 AM 64.1°F17.8°C 60.8°F16.0°C 89% Calm Calm -- 29.99 in1015.6 mb - 0.00 in0.0 mm 0.07 in1.8 mm
09:20 AM 65.1°F18.4°C 61.5°F16.4°C 88% Calm Calm -- 29.99 in1015.6 mb - 0.00 in0.0 mm 0.07 in1.8 mm
09:30 AM 67.0°F19.4°C 62.3°F16.8°C 85% Calm Calm -- 29.99 in1015.6 mb - 0.00 in0.0 mm 0.07 in1.8 mm
09:40 AM 67.8°F19.9°C 61.8°F16.6°C 81% Calm Calm -- 29.99 in1015.6 mb - 0.00 in0.0 mm 0.07 in1.8 mm
09:50 AM 67.8°F19.9°C 62.4°F16.9°C 83% Calm Calm -- 29.99 in1015.6 mb - 0.00 in0.0 mm 0.07 in1.8 mm
10:00 AM 67.5°F19.7°C 61.8°F16.6°C 82% Calm Calm -- 29.99 in1015.6 mb - 0.00 in0.0 mm 0.07 in1.8 mm
10:10 AM 67.3°F19.6°C 61.6°F16.4°C 82% Calm Calm -- 29.99 in1015.6 mb - 0.00 in0.0 mm 0.07 in1.8 mm
10:20 AM 67.9°F19.9°C 60.8°F16.0°C 78% Calm Calm -- 29.99 in1015.6 mb - 0.00 in0.0 mm 0.07 in1.8 mm
10:30 AM 69.2°F20.7°C 62.4°F16.9°C 79% Calm Calm -- 29.99 in1015.6 mb - 0.00 in0.0 mm 0.07 in1.8 mm
10:40 AM 70.2°F21.2°C 62.3°F16.8°C 76% Calm Calm -- 29.99 in1015.6 mb - 0.00 in0.0 mm 0.07 in1.8 mm
10:50 AM 69.8°F21.0°C 61.9°F16.6°C 76% Calm Calm -- 29.98 in1015.2 mb - 0.00 in0.0 mm 0.07 in1.8 mm
11:00 AM 70.0°F21.1°C 63.2°F17.3°C 79% Calm Calm -- 29.98 in1015.2 mb - 0.00 in0.0 mm 0.07 in1.8 mm
11:10 AM 70.4°F21.3°C 62.5°F16.9°C 76% Calm Calm 1.2 mph1.9 kmh 29.98 in1015.2 mb - 0.00 in0.0 mm 0.07 in1.8 mm
11:20 AM 71.6°F22.0°C 63.2°F17.3°C 75% Calm Calm 3.5 mph5.6 kmh 29.98 in1015.2 mb - 0.00 in0.0 mm 0.07 in1.8 mm
11:30 AM 70.3°F21.3°C 63.4°F17.4°C 79% Calm Calm -- 29.98 in1015.2 mb - 0.02 in0.5 mm 0.09 in2.3 mm
11:40 AM 67.6°F19.8°C 62.3°F16.8°C 83% Calm Calm -- 29.98 in1015.2 mb - 0.02 in0.5 mm 0.10 in2.5 mm
11:50 AM 67.2°F19.6°C 63.6°F17.6°C 88% Calm Calm -- 29.98 in1015.2 mb - 0.00 in0.0 mm 0.10 in2.5 mm
12:00 PM 68.2°F20.1°C 64.2°F17.9°C 87% Calm Calm -- 29.97 in1014.9 mb - 0.00 in0.0 mm 0.10 in2.5 mm
12:10 PM 69.0°F20.6°C 63.6°F17.6°C 83% Calm Calm 2.3 mph3.7 kmh 29.97 in1014.9 mb - 0.00 in0.0 mm 0.10 in2.5 mm
12:20 PM 70.1°F21.2°C 63.3°F17.4°C 79% Calm Calm -- 29.97 in1014.9 mb - 0.00 in0.0 mm 0.10 in2.5 mm
12:30 PM 69.3°F20.7°C 63.6°F17.6°C 82% Calm Calm -- 29.97 in1014.9 mb - 0.00 in0.0 mm 0.10 in2.5 mm
12:40 PM 68.2°F20.1°C 63.9°F17.7°C 86% Calm Calm -- 29.96 in1014.6 mb - 0.01 in0.3 mm 0.11 in2.8 mm
12:50 PM 68.2°F20.1°C 64.2°F17.9°C 87% Calm Calm 3.5 mph5.6 kmh 29.96 in1014.6 mb - 0.00 in0.0 mm 0.11 in2.8 mm
01:00 PM 69.0°F20.6°C 63.9°F17.7°C 84% Calm Calm -- 29.95 in1014.2 mb - 0.00 in0.0 mm 0.11 in2.8 mm
01:10 PM 70.6°F21.4°C 64.5°F18.1°C 81% 1.2 mph E1.9 kmh E 4.6 mph7.4 kmh 29.95 in1014.2 mb - 0.00 in0.0 mm 0.11 in2.8 mm
01:20 PM 71.4°F21.9°C 64.2°F17.9°C 78% Calm Calm -- 29.94 in1013.9 mb - 0.00 in0.0 mm 0.11 in2.8 mm
01:30 PM 71.8°F22.1°C 64.6°F18.1°C 78% Calm Calm 1.2 mph1.9 kmh 29.93 in1013.5 mb - 0.00 in0.0 mm 0.11 in2.8 mm
01:40 PM 73.1°F22.8°C 64.3°F17.9°C 74% Calm Calm 3.5 mph5.6 kmh 29.93 in1013.5 mb - 0.00 in0.0 mm 0.11 in2.8 mm
01:50 PM 73.5°F23.1°C 63.9°F17.7°C 72% 1.2 mph NE1.9 kmh NE 1.2 mph1.9 kmh 29.93 in1013.5 mb - 0.00 in0.0 mm 0.11 in2.8 mm
02:00 PM 70.9°F21.6°C 64.7°F18.2°C 81% 2.3 mph NE3.7 kmh NE 4.6 mph7.4 kmh 29.94 in1013.9 mb - 0.03 in0.8 mm 0.14 in3.6 mm
02:10 PM 67.7°F19.8°C 63.0°F17.2°C 85% Calm Calm -- 29.94 in1013.9 mb - 0.08 in2.0 mm 0.21 in5.3 mm
02:20 PM 66.6°F19.2°C 62.9°F17.2°C 88% Calm Calm -- 29.93 in1013.5 mb - 0.02 in0.5 mm 0.23 in5.8 mm
02:30 PM 66.4°F19.1°C 63.3°F17.4°C 90% Calm Calm -- 29.94 in1013.9 mb - 0.00 in0.0 mm 0.23 in5.8 mm
02:40 PM 66.1°F18.9°C 63.1°F17.3°C 90% Calm Calm -- 29.94 in1013.9 mb - 0.00 in0.0 mm 0.23 in5.8 mm
02:50 PM 66.2°F19.0°C 63.2°F17.3°C 90% Calm Calm -- 29.94 in1013.9 mb - 0.00 in0.0 mm 0.23 in5.8 mm
03:00 PM 66.3°F19.1°C 63.3°F17.4°C 90% Calm Calm -- 29.94 in1013.9 mb - 0.01 in0.3 mm 0.24 in6.1 mm
03:10 PM 65.6°F18.7°C 62.6°F17.0°C 90% Calm Calm -- 29.95 in1014.2 mb - 0.02 in0.5 mm 0.26 in6.6 mm
03:20 PM 65.1°F18.4°C 62.4°F16.9°C 91% Calm Calm -- 29.95 in1014.2 mb - 0.01 in0.3 mm 0.27 in6.9 mm
03:30 PM 64.7°F18.2°C 62.0°F16.7°C 91% Calm Calm -- 29.95 in1014.2 mb - 0.01 in0.3 mm 0.28 in7.1 mm
03:40 PM 64.3°F17.9°C 61.6°F16.4°C 91% Calm Calm -- 29.95 in1014.2 mb - 0.02 in0.5 mm 0.30 in7.6 mm
03:50 PM 64.3°F17.9°C 61.9°F16.6°C 92% 1.2 mph ENE1.9 kmh ENE 4.6 mph7.4 kmh 29.95 in1014.2 mb - 0.02 in0.5 mm 0.32 in8.1 mm
04:00 PM 63.9°F17.7°C 61.2°F16.2°C 91% Calm Calm -- 29.95 in1014.2 mb - 0.01 in0.3 mm 0.33 in8.4 mm
04:10 PM 64.3°F17.9°C 61.9°F16.6°C 92% Calm Calm -- 29.95 in1014.2 mb - 0.00 in0.0 mm 0.33 in8.4 mm
04:20 PM 64.7°F18.2°C 62.3°F16.8°C 92% Calm Calm -- 29.95 in1014.2 mb - 0.00 in0.0 mm 0.33 in8.4 mm
04:30 PM 64.9°F18.3°C 62.5°F16.9°C 92% Calm Calm -- 29.96 in1014.6 mb - 0.00 in0.0 mm 0.33 in8.4 mm
04:40 PM 64.9°F18.3°C 62.2°F16.8°C 91% Calm Calm -- 29.96 in1014.6 mb - 0.00 in0.0 mm 0.33 in8.4 mm
04:50 PM 65.0°F18.3°C 62.6°F17.0°C 92% Calm Calm -- 29.96 in1014.6 mb - 0.00 in0.0 mm 0.33 in8.4 mm
05:00 PM 65.0°F18.3°C 62.4°F16.9°C 91% Calm Calm -- 29.96 in1014.6 mb - 0.00 in0.0 mm 0.33 in8.4 mm
05:10 PM 64.9°F18.3°C 62.2°F16.8°C 91% Calm Calm -- 29.96 in1014.6 mb - 0.02 in0.5 mm 0.35 in8.9 mm
05:20 PM 64.7°F18.2°C 62.0°F16.7°C 91% Calm Calm -- 29.96 in1014.6 mb - 0.01 in0.3 mm 0.35 in8.9 mm
05:30 PM 64.6°F18.1°C 62.2°F16.8°C 92% Calm Calm -- 29.96 in1014.6 mb - 0.00 in0.0 mm 0.35 in8.9 mm
05:40 PM 64.3°F17.9°C 61.6°F16.4°C 91% Calm Calm -- 29.97 in1014.9 mb - 0.00 in0.0 mm 0.35 in8.9 mm
05:50 PM 64.3°F17.9°C 61.9°F16.6°C 92% Calm Calm -- 29.97 in1014.9 mb - 0.00 in0.0 mm 0.35 in8.9 mm
06:00 PM 64.3°F17.9°C 62.2°F16.8°C 93% Calm Calm -- 29.98 in1015.2 mb - 0.01 in0.3 mm 0.36 in9.1 mm
06:10 PM 64.1°F17.8°C 62.0°F16.7°C 93% Calm Calm -- 29.98 in1015.2 mb - 0.00 in0.0 mm 0.36 in9.1 mm
06:20 PM 63.8°F17.7°C 61.7°F16.5°C 93% Calm Calm -- 29.98 in1015.2 mb - 0.04 in1.0 mm 0.40 in10.2 mm
06:30 PM 63.4°F17.4°C 61.3°F16.3°C 93% Calm Calm -- 29.98 in1015.2 mb - 0.02 in0.5 mm 0.42 in10.7 mm
06:40 PM 63.4°F17.4°C 61.3°F16.3°C 93% Calm Calm -- 29.98 in1015.2 mb - 0.01 in0.3 mm 0.43 in10.9 mm
06:50 PM 63.4°F17.4°C 61.3°F16.3°C 93% Calm Calm -- 29.99 in1015.6 mb - 0.01 in0.3 mm 0.44 in11.2 mm
07:00 PM 63.4°F17.4°C 61.7°F16.5°C 94% Calm Calm -- 30.00 in1015.9 mb - 0.03 in0.8 mm 0.47 in11.9 mm
07:10 PM 63.2°F17.3°C 61.1°F16.2°C 93% Calm Calm 2.3 mph3.7 kmh 30.00 in1015.9 mb - 0.09 in2.3 mm 0.55 in14.0 mm
07:20 PM 62.8°F17.1°C 61.0°F16.1°C 94% 1.2 mph ENE1.9 kmh ENE 6.9 mph11.1 kmh 30.00 in1015.9 mb - 0.02 in0.5 mm 0.57 in14.5 mm
07:30 PM 62.7°F17.1°C 60.9°F16.1°C 94% Calm Calm 3.5 mph5.6 kmh 30.00 in1015.9 mb - 0.01 in0.3 mm 0.58 in14.7 mm
07:40 PM 62.5°F16.9°C 60.8°F16.0°C 94% Calm Calm -- 30.00 in1015.9 mb - 0.01 in0.3 mm 0.59 in15.0 mm
07:50 PM 62.4°F16.9°C 60.7°F15.9°C 94% 1.2 mph NE1.9 kmh NE 5.8 mph9.3 kmh 30.00 in1015.9 mb - 0.00 in0.0 mm 0.59 in15.0 mm
08:00 PM 62.5°F16.9°C 60.7°F15.9°C 94% Calm Calm 2.3 mph3.7 kmh 30.01 in1016.3 mb - 0.01 in0.3 mm 0.60 in15.2 mm
08:10 PM 62.7°F17.1°C 60.9°F16.1°C 94% 2.3 mph ENE3.7 kmh ENE 10.4 mph16.7 kmh 30.01 in1016.3 mb - 0.02 in0.5 mm 0.62 in15.7 mm
08:20 PM 63.0°F17.2°C 61.2°F16.2°C 94% 2.3 mph ENE3.7 kmh ENE 9.2 mph14.8 kmh 30.01 in1016.3 mb - 0.01 in0.3 mm 0.62 in15.7 mm
08:30 PM 63.0°F17.2°C 61.2°F16.2°C 94% 1.2 mph ENE1.9 kmh ENE 3.5 mph5.6 kmh 30.01 in1016.3 mb - 0.00 in0.0 mm 0.62 in15.7 mm
08:40 PM 62.8°F17.1°C 60.7°F15.9°C 93% Calm Calm 1.2 mph1.9 kmh 30.01 in1016.3 mb - 0.00 in0.0 mm 0.62 in15.7 mm
08:50 PM 62.9°F17.2°C 61.1°F16.2°C 94% Calm Calm -- 30.02 in1016.6 mb - 0.00 in0.0 mm 0.62 in15.7 mm
09:00 PM 63.1°F17.3°C 61.3°F16.3°C 94% 4.6 mph ENE7.4 kmh ENE 10.4 mph16.7 kmh 30.02 in1016.6 mb - 0.01 in0.3 mm 0.63 in16.0 mm
09:10 PM 62.9°F17.2°C 60.9°F16.1°C 93% 3.5 mph E5.6 kmh E 3.5 mph5.6 kmh 30.02 in1016.6 mb - 0.01 in0.3 mm 0.64 in16.3 mm
09:20 PM 62.8°F17.1°C 60.8°F16.0°C 93% 2.3 mph E3.7 kmh E 6.9 mph11.1 kmh 30.02 in1016.6 mb - 0.00 in0.0 mm 0.64 in16.3 mm
09:30 PM 62.9°F17.2°C 60.9°F16.1°C 93% 4.6 mph ENE7.4 kmh ENE 8.1 mph13.0 kmh 30.03 in1016.9 mb - 0.01 in0.3 mm 0.65 in16.5 mm
09:40 PM 63.1°F17.3°C 61.0°F16.1°C 93% 1.2 mph ENE1.9 kmh ENE -- 30.03 in1016.9 mb - 0.09 in2.3 mm 0.74 in18.8 mm
09:50 PM 63.1°F17.3°C 61.3°F16.3°C 94% 1.2 mph ENE1.9 kmh ENE 5.8 mph9.3 kmh 30.03 in1016.9 mb - 0.09 in2.3 mm 0.82 in20.8 mm
10:00 PM 63.0°F17.2°C 61.2°F16.2°C 94% Calm Calm -- 30.02 in1016.6 mb - 0.05 in1.3 mm 0.87 in22.1 mm
10:10 PM 63.1°F17.3°C 61.3°F16.3°C 94% Calm Calm -- 30.02 in1016.6 mb - 0.02 in0.5 mm 0.89 in22.6 mm
10:20 PM 63.0°F17.2°C 61.3°F16.3°C 94% 2.3 mph NE3.7 kmh NE 5.8 mph9.3 kmh 30.02 in1016.6 mb - 0.01 in0.3 mm 0.90 in22.9 mm
10:30 PM 62.8°F17.1°C 61.0°F16.1°C 94% 1.2 mph ENE1.9 kmh ENE 9.2 mph14.8 kmh 30.02 in1016.6 mb - 0.01 in0.3 mm 0.91 in23.1 mm
10:40 PM 63.0°F17.2°C 61.2°F16.2°C 94% 3.5 mph ENE5.6 kmh ENE 12.7 mph20.4 kmh 30.02 in1016.6 mb - 0.04 in1.0 mm 0.95 in24.1 mm
10:50 PM 63.1°F17.3°C 61.3°F16.3°C 94% 2.3 mph ENE3.7 kmh ENE 6.9 mph11.1 kmh 30.03 in1016.9 mb - 0.08 in2.0 mm 1.02 in25.9 mm
11:00 PM 63.2°F17.3°C 61.4°F16.3°C 94% 4.6 mph ENE7.4 kmh ENE 10.4 mph16.7 kmh 30.03 in1016.9 mb - 0.11 in2.8 mm 1.12 in28.4 mm
11:10 PM 63.1°F17.3°C 61.3°F16.3°C 94% 1.2 mph E1.9 kmh E 4.6 mph7.4 kmh 30.02 in1016.6 mb - 0.05 in1.3 mm 1.16 in29.5 mm
11:20 PM 63.3°F17.4°C 61.5°F16.4°C 94% 1.2 mph ENE1.9 kmh ENE 6.9 mph11.1 kmh 30.01 in1016.3 mb - 0.00 in0.0 mm 1.16 in29.5 mm
11:30 PM 63.2°F17.3°C 61.4°F16.3°C 94% Calm Calm -- 30.01 in1016.3 mb - 0.00 in0.0 mm 1.16 in29.5 mm
11:40 PM 63.3°F17.4°C 61.5°F16.4°C 94% 3.5 mph E5.6 kmh E 6.9 mph11.1 kmh 30.01 in1016.3 mb - 0.00 in0.0 mm 1.16 in29.5 mm
11:50 PM 63.1°F17.3°C 61.0°F16.1°C 93% 1.2 mph ENE1.9 kmh ENE 11.5 mph18.5 kmh 30.01 in1016.3 mb - 0.00 in0.0 mm 1.16 in29.5 mm